This is the latest recevied weather packets stored in our database for station/object WG5EEK. If no packets are shown the sender has not sent any weather packets the latest 10 day(s).
| Time | Temp. | Humidity | Pressure | Rain* | Wind** | Luminosity | Snow |
|---|---|---|---|---|---|---|---|
| 1777714922 | 12.22° C | 81% | 995.4 hPa | - | - | - | - |
| 1777714587 | 12.22° C | 80% | 995.4 hPa | - | - | - | - |
| 1777712403 | 12.22° C | 79% | 994.7 hPa | - | - | - | - |
| 1777705922 | 12.22° C | 77% | 994.9 hPa | - | - | - | - |
| 1777703761 | 12.78° C | 76% | 994 hPa | - | - | - | - |
| 1777700882 | 13.33° C | 75% | 993 hPa | - | - | - | - |
| 1777699082 | 13.33° C | 74% | 992.8 hPa | - | - | - | - |
| 1777696922 | 13.89° C | 72% | 992.4 hPa | - | - | - | - |
| 1777695482 | 14.44° C | 71% | 991 hPa | - | - | - | - |
| 1777694763 | 15° C | 70% | 990.9 hPa | - | - | - | - |
| 1777685043 | 17.78° C | 58% | 985.1 hPa | - | - | - | - |
| 1777684322 | 18.33° C | 55% | 984.2 hPa | - | - | - | - |
| 1777683601 | 18.89° C | 53% | 983.3 hPa | - | - | - | - |
| 1777682162 | 20° C | 48% | 981.9 hPa | - | - | - | - |
| 1777680722 | 20° C | 46% | 980.7 hPa | - | - | - | - |
| 1777679641 | 20.56° C | 46% | 979.9 hPa | - | - | - | - |
| 1777673907 | 21.67° C | 43% | 977.7 hPa | - | - | - | - |
| 1777671722 | 22.22° C | 43% | 976.7 hPa | - | - | - | - |
| 1777670642 | 22.22° C | 42% | 976.8 hPa | - | - | - | - |
| 1777668482 | 22.22° C | 42% | 976.8 hPa | - | - | - | - |
| 1777667043 | 22.22° C | 43% | 977.5 hPa | - | - | - | - |
| 1777665960 | 22.22° C | 43% | 977.9 hPa | - | - | - | - |
| 1777665604 | 22.22° C | 44% | 978.2 hPa | - | - | - | - |
| 1777665242 | 22.22° C | 44% | 978.4 hPa | - | - | - | - |
| 1777660201 | 21.67° C | 52% | 980.7 hPa | - | - | - | - |
* Rain since midnight (hover to see other rain measurements)
** Current wind speed in m/s (hover to see current wind gust speed)